createdAt,value
2018-12-25T00:00:28.702Z,9.37
2018-12-25T00:02:59.910Z,8.20
2018-12-25T00:05:31.218Z,10.97
2018-12-25T00:08:02.570Z,8.10
2018-12-25T00:10:33.767Z,7.53
2018-12-25T00:13:04.963Z,7.93
2018-12-25T00:15:36.231Z,7.70
2018-12-25T00:18:07.470Z,7.60
2018-12-25T00:20:38.717Z,7.17
2018-12-25T00:23:10.996Z,7.67
2018-12-25T00:25:43.283Z,6.60
2018-12-25T00:28:14.444Z,6.63
2018-12-25T00:30:45.790Z,6.93
2018-12-25T00:33:16.963Z,7.87
2018-12-25T00:35:48.211Z,6.50
2018-12-25T00:38:19.511Z,7.97
2018-12-25T00:40:50.775Z,6.23
2018-12-25T00:43:21.997Z,7.27
2018-12-25T00:45:53.261Z,8.23
2018-12-25T00:48:30.266Z,5.87
2018-12-25T00:51:01.670Z,7.23
2018-12-25T00:53:32.860Z,5.80
2018-12-25T00:56:04.072Z,5.77
2018-12-25T00:58:35.317Z,5.53
2018-12-25T01:01:06.542Z,5.77
2018-12-25T01:03:37.680Z,5.13
2018-12-25T01:06:08.925Z,6.13
2018-12-25T01:08:40.223Z,5.63
2018-12-25T01:11:11.421Z,7.73
2018-12-25T01:13:42.590Z,7.00
2018-12-25T01:16:13.911Z,5.30
2018-12-25T01:18:45.136Z,5.93
2018-12-25T01:21:16.298Z,5.37
2018-12-25T01:23:47.530Z,5.30
2018-12-25T01:26:18.697Z,4.73
2018-12-25T01:28:49.888Z,5.47
2018-12-25T01:31:21.170Z,5.10
2018-12-25T01:33:52.329Z,4.70
2018-12-25T01:36:24.492Z,5.10
2018-12-25T01:38:55.890Z,4.70
2018-12-25T01:41:27.239Z,4.77
2018-12-25T01:43:58.432Z,4.90
2018-12-25T01:46:29.647Z,4.90
2018-12-25T01:49:00.945Z,4.37
2018-12-25T01:51:32.177Z,5.00
2018-12-25T01:54:03.355Z,4.17
2018-12-25T01:56:34.589Z,4.80
2018-12-25T01:59:05.844Z,4.07
2018-12-25T02:01:37.033Z,4.90
2018-12-25T02:04:08.220Z,6.20
2018-12-25T02:06:39.452Z,4.20
2018-12-25T02:09:10.614Z,4.63
2018-12-25T02:11:41.848Z,5.07
2018-12-25T02:14:13.009Z,4.30
2018-12-25T02:16:44.195Z,4.97
2018-12-25T02:19:15.394Z,4.50
2018-12-25T02:21:46.582Z,4.83
2018-12-25T02:24:17.755Z,4.73
2018-12-25T02:26:48.950Z,4.60
2018-12-25T02:29:20.151Z,4.90
2018-12-25T02:31:51.301Z,5.00
2018-12-25T02:34:22.480Z,5.67
2018-12-25T02:36:53.582Z,4.37
2018-12-25T02:39:24.788Z,4.63
2018-12-25T02:41:56.012Z,4.47
2018-12-25T02:44:27.181Z,4.87
2018-12-25T02:46:58.397Z,4.80
2018-12-25T02:49:29.569Z,5.17
2018-12-25T02:52:00.750Z,5.13
2018-12-25T02:54:31.990Z,5.67
2018-12-25T02:57:03.331Z,5.27
2018-12-25T02:59:34.496Z,4.83
2018-12-25T03:02:05.673Z,4.87
2018-12-25T03:04:36.896Z,9.30
2018-12-25T03:07:08.037Z,5.20
2018-12-25T03:09:39.390Z,6.03
2018-12-25T03:12:10.713Z,5.23
2018-12-25T03:14:41.870Z,4.63
2018-12-25T03:17:13.053Z,5.63
2018-12-25T03:19:44.203Z,5.50
2018-12-25T03:22:15.405Z,5.30
2018-12-25T03:24:46.561Z,5.57
2018-12-25T03:27:17.725Z,4.60
2018-12-25T03:29:49.004Z,5.03
2018-12-25T03:32:20.266Z,5.77
2018-12-25T03:34:51.492Z,6.40
2018-12-25T03:37:22.829Z,5.27
2018-12-25T03:39:54.061Z,4.80
2018-12-25T03:42:25.226Z,5.67
2018-12-25T03:44:56.611Z,5.53
2018-12-25T03:47:28.852Z,5.50
2018-12-25T03:50:10.188Z,5.90
2018-12-25T03:52:32.932Z,5.40
2018-12-25T03:55:04.115Z,6.07
2018-12-25T03:57:35.264Z,4.73
2018-12-25T04:00:06.744Z,6.27
2018-12-25T04:02:38.000Z,5.10
2018-12-25T04:05:09.185Z,5.33
2018-12-25T04:07:40.384Z,5.63
2018-12-25T04:10:11.579Z,4.90
2018-12-25T04:12:42.894Z,6.07
2018-12-25T04:15:14.118Z,4.90
2018-12-25T04:17:45.345Z,5.57
2018-12-25T04:20:19.942Z,5.33
2018-12-25T04:22:49.527Z,7.00
2018-12-25T04:25:20.722Z,4.73
2018-12-25T04:27:51.960Z,5.53
2018-12-25T04:30:23.155Z,5.10
2018-12-25T04:32:54.343Z,4.73
2018-12-25T04:35:25.517Z,5.73
2018-12-25T04:37:56.701Z,5.00
2018-12-25T04:40:27.933Z,5.20
2018-12-25T04:42:59.064Z,4.80
2018-12-25T04:45:30.247Z,4.90
2018-12-25T04:48:01.415Z,5.27
2018-12-25T04:50:32.654Z,4.80
2018-12-25T04:53:03.842Z,5.47
2018-12-25T04:55:34.990Z,5.40
2018-12-25T04:58:06.174Z,5.40
2018-12-25T05:00:37.437Z,6.13
2018-12-25T05:03:08.741Z,5.37
2018-12-25T05:05:39.951Z,4.70
2018-12-25T05:08:11.113Z,5.07
2018-12-25T05:10:42.287Z,6.27
2018-12-25T05:13:13.503Z,5.17
2018-12-25T05:15:44.753Z,5.77
2018-12-25T05:18:15.923Z,5.00
2018-12-25T05:20:47.132Z,4.77
2018-12-25T05:23:18.362Z,4.67
2018-12-25T05:25:49.579Z,5.53
2018-12-25T05:28:20.773Z,5.10
2018-12-25T05:30:51.953Z,5.00
2018-12-25T05:33:23.200Z,4.77
2018-12-25T05:35:54.351Z,5.03
2018-12-25T05:38:25.542Z,5.20
2018-12-25T05:40:56.681Z,4.60
2018-12-25T05:43:27.966Z,4.80
2018-12-25T05:45:59.136Z,5.00
2018-12-25T05:48:30.361Z,5.13
2018-12-25T05:51:01.512Z,5.30
2018-12-25T05:53:32.625Z,4.43
2018-12-25T05:56:03.804Z,4.50
2018-12-25T05:58:34.991Z,4.47
2018-12-25T06:01:06.263Z,4.90
2018-12-25T06:03:37.485Z,4.90
2018-12-25T06:06:08.714Z,4.80
2018-12-25T06:08:39.942Z,4.20
2018-12-25T06:11:11.136Z,4.53
2018-12-25T06:13:42.389Z,4.20
2018-12-25T06:16:13.545Z,4.80
2018-12-25T06:18:44.887Z,4.40
2018-12-25T06:21:16.119Z,4.63
2018-12-25T06:23:47.309Z,4.77
2018-12-25T06:26:18.501Z,4.90
2018-12-25T06:28:49.854Z,4.07
2018-12-25T06:31:21.462Z,4.43
2018-12-25T06:33:52.648Z,4.97
2018-12-25T06:36:23.897Z,6.37
2018-12-25T06:38:55.033Z,4.70
2018-12-25T06:41:26.246Z,4.17
2018-12-25T06:43:57.419Z,4.70
2018-12-25T06:46:28.670Z,4.90
2018-12-25T06:48:59.867Z,4.73
2018-12-25T06:51:31.036Z,6.03
2018-12-25T06:54:02.173Z,4.63
2018-12-25T06:56:33.361Z,4.90
2018-12-25T06:59:04.530Z,4.57
2018-12-25T07:01:35.751Z,5.50
2018-12-25T07:04:06.963Z,4.93
2018-12-25T07:06:38.279Z,4.80
2018-12-25T07:09:09.575Z,4.43
2018-12-25T07:11:40.834Z,5.00
2018-12-25T07:14:11.987Z,4.30
2018-12-25T07:16:43.189Z,4.30
2018-12-25T07:19:14.297Z,5.50
2018-12-25T07:21:45.456Z,4.90
2018-12-25T07:24:16.608Z,4.90
2018-12-25T07:26:47.736Z,4.17
2018-12-25T07:29:18.885Z,4.73
2018-12-25T07:31:50.087Z,4.53
2018-12-25T07:34:21.293Z,4.93
2018-12-25T07:36:52.443Z,5.37
2018-12-25T07:39:23.840Z,5.00
2018-12-25T07:41:55.901Z,5.23
2018-12-25T07:44:27.035Z,4.87
2018-12-25T07:46:58.228Z,4.90
2018-12-25T07:49:29.407Z,4.23
2018-12-25T07:52:00.577Z,4.70
2018-12-25T07:54:31.789Z,4.47
2018-12-25T07:57:02.989Z,5.10
2018-12-25T07:59:34.133Z,5.10
2018-12-25T08:02:05.346Z,5.47
2018-12-25T08:04:36.519Z,4.83
2018-12-25T08:07:07.658Z,4.90
2018-12-25T08:09:38.828Z,4.83
2018-12-25T08:12:11.075Z,4.70
2018-12-25T08:14:42.284Z,5.17
2018-12-25T08:17:13.459Z,5.10
2018-12-25T08:19:44.675Z,5.03
2018-12-25T08:22:15.933Z,4.87
2018-12-25T08:24:47.181Z,8.20
2018-12-25T08:27:18.511Z,4.83
2018-12-25T08:29:49.691Z,5.00
2018-12-25T08:32:20.870Z,4.87
2018-12-25T08:34:52.144Z,6.70
2018-12-25T08:37:23.311Z,4.80
2018-12-25T08:39:56.060Z,4.60
2018-12-25T08:42:27.191Z,5.23
2018-12-25T08:44:58.338Z,5.67
2018-12-25T08:47:29.579Z,5.17
2018-12-25T08:50:00.898Z,4.97
2018-12-25T08:52:32.148Z,5.20
2018-12-25T08:55:03.295Z,5.77
2018-12-25T08:57:34.450Z,5.07
2018-12-25T09:00:08.285Z,5.03
2018-12-25T09:02:39.473Z,5.67
2018-12-25T09:05:10.623Z,5.43
2018-12-25T09:07:41.774Z,6.80
2018-12-25T09:10:13.109Z,6.00
2018-12-25T09:12:44.340Z,5.23
2018-12-25T09:15:15.508Z,6.10
2018-12-25T09:17:46.706Z,5.40
2018-12-25T09:20:17.944Z,5.23
2018-12-25T09:22:49.121Z,6.30
2018-12-25T09:25:20.406Z,5.97
2018-12-25T09:27:51.707Z,5.30
2018-12-25T09:30:22.958Z,5.47
2018-12-25T09:32:54.236Z,6.03
2018-12-25T09:35:25.404Z,6.73
2018-12-25T09:37:56.591Z,5.60
2018-12-25T09:40:27.747Z,5.97
2018-12-25T09:42:58.922Z,5.53
2018-12-25T09:45:30.251Z,5.77
2018-12-25T09:48:01.392Z,6.07
2018-12-25T09:50:32.600Z,11.70
2018-12-25T09:53:03.861Z,6.80
2018-12-25T09:55:35.081Z,5.63
2018-12-25T09:58:06.249Z,5.47
2018-12-25T10:00:38.362Z,5.57
2018-12-25T10:03:09.698Z,5.23
2018-12-25T10:05:41.041Z,6.93
2018-12-25T10:08:12.341Z,5.57
2018-12-25T10:10:43.537Z,7.10
2018-12-25T10:13:14.744Z,6.17
2018-12-25T10:15:46.335Z,6.10
2018-12-25T10:18:17.472Z,5.73
2018-12-25T10:20:48.641Z,5.87
2018-12-25T10:23:19.868Z,6.03
2018-12-25T10:25:51.007Z,5.93
2018-12-25T10:28:22.172Z,5.87
2018-12-25T10:30:53.409Z,6.20
2018-12-25T10:33:24.638Z,5.90
2018-12-25T10:35:56.068Z,6.03
2018-12-25T10:38:27.201Z,6.30
2018-12-25T10:40:58.414Z,5.97
2018-12-25T10:43:29.610Z,5.50
2018-12-25T10:46:00.806Z,5.03
2018-12-25T10:48:31.944Z,5.83
2018-12-25T10:51:03.125Z,4.63
2018-12-25T10:53:34.299Z,5.40
2018-12-25T10:56:05.469Z,5.00
2018-12-25T10:58:36.600Z,5.00
2018-12-25T11:01:19.095Z,5.30
2018-12-25T11:03:50.286Z,4.60
2018-12-25T11:06:21.476Z,4.10
2018-12-25T11:08:52.707Z,5.10
2018-12-25T11:11:23.892Z,4.70
2018-12-25T11:13:54.994Z,4.93
2018-12-25T11:16:26.166Z,5.43
2018-12-25T11:18:57.374Z,5.47
2018-12-25T11:21:28.611Z,4.50
2018-12-25T11:23:59.907Z,4.57
2018-12-25T11:26:31.147Z,4.83
2018-12-25T11:29:02.395Z,5.03
2018-12-25T11:31:33.669Z,4.90
2018-12-25T11:34:04.874Z,4.67
2018-12-25T11:36:36.006Z,4.90
2018-12-25T11:39:07.924Z,6.23
2018-12-25T11:41:39.085Z,4.63
2018-12-25T11:44:10.235Z,4.67
2018-12-25T11:46:41.330Z,7.40
2018-12-25T11:49:12.529Z,4.90
2018-12-25T11:51:43.758Z,4.70
2018-12-25T11:54:16.024Z,4.70
2018-12-25T11:56:47.400Z,4.73
2018-12-25T11:59:18.560Z,4.27
2018-12-25T12:01:49.909Z,5.00
2018-12-25T12:04:22.335Z,4.90
2018-12-25T12:06:53.555Z,4.23
2018-12-25T12:09:24.738Z,5.53
2018-12-25T12:11:56.026Z,5.23
2018-12-25T12:14:27.405Z,5.10
2018-12-25T12:16:59.544Z,4.20
2018-12-25T12:19:30.813Z,4.77
2018-12-25T12:22:01.957Z,4.13
2018-12-25T12:24:34.181Z,4.40
2018-12-25T12:27:05.367Z,5.07
2018-12-25T12:29:36.881Z,22.47
2018-12-25T12:32:08.074Z,4.97
2018-12-25T12:34:39.530Z,5.77
2018-12-25T12:37:10.732Z,4.97
2018-12-25T12:39:41.903Z,5.57
2018-12-25T12:42:13.086Z,4.37
2018-12-25T12:44:44.574Z,4.70
2018-12-25T12:47:15.776Z,7.43
2018-12-25T12:49:46.943Z,5.43
2018-12-25T12:52:18.202Z,4.23
2018-12-25T12:54:49.662Z,4.57
2018-12-25T12:57:20.879Z,5.03
2018-12-25T12:59:52.466Z,4.23
2018-12-25T13:02:23.814Z,4.20
2018-12-25T13:04:55.326Z,4.47
2018-12-25T13:07:26.614Z,4.30
2018-12-25T13:09:57.852Z,7.90
2018-12-25T13:12:29.068Z,4.50
2018-12-25T13:15:00.384Z,4.70
2018-12-25T13:17:31.866Z,4.00
2018-12-25T13:20:03.097Z,4.17
2018-12-25T13:22:34.425Z,4.80
2018-12-25T13:25:05.627Z,4.20
2018-12-25T13:27:36.861Z,5.63
2018-12-25T13:30:09.418Z,4.23
2018-12-25T13:32:40.588Z,4.17
2018-12-25T13:35:11.866Z,4.87
2018-12-25T13:37:43.006Z,4.77
2018-12-25T13:40:14.190Z,5.03
2018-12-25T13:42:45.320Z,4.10
2018-12-25T13:45:16.506Z,6.33
2018-12-25T13:47:47.766Z,4.60
2018-12-25T13:50:19.001Z,4.63
2018-12-25T13:52:50.189Z,4.60
2018-12-25T13:55:21.362Z,4.93
2018-12-25T13:57:52.554Z,5.33
2018-12-25T14:00:23.787Z,5.77
2018-12-25T14:02:55.191Z,5.13
2018-12-25T14:05:26.357Z,6.77
2018-12-25T14:07:57.616Z,5.17
2018-12-25T14:10:28.856Z,6.10
2018-12-25T14:13:00.015Z,6.10
2018-12-25T14:15:31.190Z,6.27
2018-12-25T14:18:02.377Z,6.20
2018-12-25T14:20:33.578Z,5.67
2018-12-25T14:23:11.158Z,5.40
2018-12-25T14:25:37.642Z,6.60
2018-12-25T14:28:08.872Z,6.77
2018-12-25T14:30:40.012Z,6.33
2018-12-25T14:33:11.276Z,6.00
2018-12-25T14:35:42.510Z,6.17
2018-12-25T14:38:13.830Z,6.77
2018-12-25T14:40:45.041Z,5.77
2018-12-25T14:43:16.270Z,6.03
2018-12-25T14:45:47.486Z,5.30
2018-12-25T14:48:18.737Z,6.30
2018-12-25T14:50:50.124Z,5.87
2018-12-25T14:53:21.282Z,5.37
2018-12-25T14:55:52.540Z,5.67
2018-12-25T14:58:23.716Z,6.50
2018-12-25T15:00:55.955Z,5.50
2018-12-25T15:03:27.284Z,8.43
2018-12-25T15:05:58.486Z,5.83
2018-12-25T15:08:29.614Z,5.83
2018-12-25T15:11:00.772Z,5.43
2018-12-25T15:13:31.962Z,8.03
2018-12-25T15:16:03.125Z,5.90
2018-12-25T15:18:34.310Z,5.90
2018-12-25T15:21:05.626Z,5.77
2018-12-25T15:23:36.901Z,4.77
2018-12-25T15:26:08.088Z,5.40
2018-12-25T15:28:39.311Z,4.83
2018-12-25T15:31:10.636Z,4.83
2018-12-25T15:33:41.818Z,4.83
2018-12-25T15:36:13.053Z,4.93
2018-12-25T15:38:44.278Z,6.43
2018-12-25T15:41:15.443Z,5.80
2018-12-25T15:43:46.627Z,5.43
2018-12-25T15:46:17.834Z,8.17
2018-12-25T15:48:48.960Z,4.50
2018-12-25T15:51:20.176Z,4.33
2018-12-25T15:53:51.332Z,4.60
2018-12-25T15:56:22.628Z,4.47
2018-12-25T15:58:53.795Z,4.77
2018-12-25T16:01:25.120Z,7.03
2018-12-25T16:03:56.338Z,4.80
2018-12-25T16:06:27.548Z,5.40
2018-12-25T16:08:58.723Z,4.53
2018-12-25T16:11:29.975Z,4.03
2018-12-25T16:14:01.221Z,3.70
2018-12-25T16:16:32.402Z,4.47
2018-12-25T16:19:03.575Z,4.73
2018-12-25T16:21:34.878Z,5.07
2018-12-25T16:24:06.070Z,4.13
2018-12-25T16:26:37.251Z,4.40
2018-12-25T16:29:08.436Z,4.83
2018-12-25T16:31:39.615Z,4.23
2018-12-25T16:34:10.798Z,4.30
2018-12-25T16:36:41.996Z,4.43
2018-12-25T16:39:13.327Z,5.07
2018-12-25T16:41:44.550Z,4.30
2018-12-25T16:44:15.708Z,4.70
2018-12-25T16:46:46.904Z,4.73
2018-12-25T16:49:18.081Z,4.53
2018-12-25T16:51:49.232Z,4.97
2018-12-25T16:54:20.538Z,4.30
2018-12-25T16:56:51.689Z,4.30
2018-12-25T16:59:22.899Z,4.20
2018-12-25T17:01:54.104Z,4.47
2018-12-25T17:04:25.300Z,4.17
2018-12-25T17:06:56.473Z,4.73
2018-12-25T17:09:27.760Z,4.10
2018-12-25T17:11:58.941Z,4.03
2018-12-25T17:14:30.183Z,4.47
2018-12-25T17:17:01.427Z,6.97
2018-12-25T17:19:32.593Z,4.43
2018-12-25T17:22:03.866Z,5.63
2018-12-25T17:24:35.016Z,4.70
2018-12-25T17:27:06.213Z,4.37
2018-12-25T17:29:37.937Z,5.37
2018-12-25T17:32:09.156Z,5.23
2018-12-25T17:34:40.327Z,4.33
2018-12-25T17:37:11.504Z,4.30
2018-12-25T17:39:42.740Z,5.03
2018-12-25T17:42:13.910Z,4.53
2018-12-25T17:44:45.158Z,5.13
2018-12-25T17:47:16.355Z,5.37
2018-12-25T17:49:47.566Z,5.50
2018-12-25T17:52:18.801Z,4.77
2018-12-25T17:54:49.966Z,5.30
2018-12-25T17:57:21.124Z,4.77
2018-12-25T17:59:52.281Z,4.90
2018-12-25T18:02:23.474Z,4.80
2018-12-25T18:04:54.704Z,4.67
2018-12-25T18:07:25.913Z,4.90
2018-12-25T18:09:57.102Z,4.80
2018-12-25T18:12:28.241Z,5.70
2018-12-25T18:14:59.400Z,5.10
2018-12-25T18:17:30.612Z,4.97
2018-12-25T18:20:01.902Z,5.40
2018-12-25T18:22:33.167Z,5.53
2018-12-25T18:25:04.314Z,5.67
2018-12-25T18:27:35.514Z,5.23
2018-12-25T18:30:07.261Z,5.27
2018-12-25T18:32:38.442Z,6.80
2018-12-25T18:35:09.607Z,5.13
2018-12-25T18:37:40.898Z,5.80
2018-12-25T18:40:12.019Z,5.27
2018-12-25T18:42:43.169Z,5.30
2018-12-25T18:45:14.731Z,5.57
2018-12-25T18:47:46.010Z,5.57
2018-12-25T18:50:17.313Z,5.53
2018-12-25T18:52:48.648Z,4.63
2018-12-25T18:55:19.912Z,6.00
2018-12-25T18:57:51.198Z,5.80
2018-12-25T19:00:22.428Z,6.97
2018-12-25T19:02:53.690Z,5.30
2018-12-25T19:05:24.941Z,5.57
2018-12-25T19:07:56.104Z,6.20
2018-12-25T19:10:27.324Z,5.40
2018-12-25T19:12:58.510Z,5.33
2018-12-25T19:15:32.257Z,6.07
2018-12-25T19:18:04.171Z,5.47
2018-12-25T19:20:35.296Z,6.07
2018-12-25T19:23:06.506Z,5.97
2018-12-25T19:25:37.782Z,5.77
2018-12-25T19:28:09.318Z,5.77
2018-12-25T19:30:41.456Z,5.53
2018-12-25T19:33:12.624Z,5.13
2018-12-25T19:35:43.853Z,5.37
2018-12-25T19:38:15.106Z,6.20
2018-12-25T19:40:46.317Z,7.50
2018-12-25T19:43:17.497Z,5.53
2018-12-25T19:45:48.846Z,10.47
2018-12-25T19:48:20.002Z,6.40
2018-12-25T19:50:51.271Z,6.03
2018-12-25T19:53:22.503Z,6.27
2018-12-25T19:55:53.750Z,5.63
2018-12-25T19:58:25.069Z,7.83
2018-12-25T20:00:56.377Z,5.97
2018-12-25T20:03:38.708Z,6.47
2018-12-25T20:06:47.623Z,6.00
2018-12-25T20:09:55.792Z,5.93
2018-12-25T20:12:59.488Z,6.40
2018-12-25T20:16:12.454Z,6.17
2018-12-25T20:19:29.442Z,6.63
2018-12-25T20:22:58.531Z,7.43
2018-12-25T20:25:55.523Z,6.00
2018-12-25T20:28:48.205Z,5.80
2018-12-25T20:31:55.438Z,6.73
2018-12-25T20:35:09.840Z,8.03
2018-12-25T20:38:14.793Z,6.10
2018-12-25T20:41:48.503Z,6.60
2018-12-25T20:45:06.066Z,7.30
2018-12-25T20:48:26.457Z,7.13
2018-12-25T20:51:53.675Z,7.23
2018-12-25T20:55:05.711Z,6.77
2018-12-25T20:58:09.971Z,6.83
2018-12-25T21:01:16.597Z,7.23
2018-12-25T21:04:33.939Z,9.33
2018-12-25T21:07:32.507Z,8.00
2018-12-25T21:10:39.725Z,7.63
2018-12-25T21:13:36.900Z,8.07
2018-12-25T21:16:58.060Z,6.70
2018-12-25T21:20:13.747Z,9.10
2018-12-25T21:23:20.890Z,7.67
2018-12-25T21:26:27.828Z,8.33
2018-12-25T21:28:59.085Z,9.00
2018-12-25T21:31:30.325Z,8.70
2018-12-25T21:34:01.595Z,9.80
2018-12-25T21:36:32.971Z,9.10
2018-12-25T21:39:05.776Z,8.87
2018-12-25T21:41:37.133Z,7.43
2018-12-25T21:44:08.307Z,8.73
2018-12-25T21:46:39.484Z,9.43
2018-12-25T21:49:12.732Z,8.20
2018-12-25T21:51:43.927Z,8.80
2018-12-25T21:54:15.316Z,10.73
2018-12-25T21:56:46.582Z,9.33
2018-12-25T21:59:18.273Z,9.03
2018-12-25T22:01:51.218Z,9.13
2018-12-25T22:04:24.057Z,10.23
2018-12-25T22:06:55.290Z,9.63
2018-12-25T22:09:26.651Z,10.60
2018-12-25T22:11:57.866Z,8.80
2018-12-25T22:14:29.053Z,9.17
2018-12-25T22:17:00.343Z,10.70
2018-12-25T22:19:31.537Z,10.37
2018-12-25T22:22:02.767Z,10.40
2018-12-25T22:24:34.044Z,9.83
2018-12-25T22:27:05.299Z,10.07
2018-12-25T22:29:36.486Z,11.63
2018-12-25T22:32:07.791Z,11.53
2018-12-25T22:34:38.975Z,12.40
2018-12-25T22:37:10.221Z,12.53
2018-12-25T22:39:41.484Z,12.50
2018-12-25T22:42:12.724Z,14.70
2018-12-25T22:44:44.010Z,12.63
2018-12-25T22:47:15.232Z,14.87
2018-12-25T22:49:46.525Z,15.90
2018-12-25T22:52:17.770Z,15.23
2018-12-25T22:54:49.092Z,17.47
2018-12-25T22:57:20.373Z,16.80
2018-12-25T22:59:51.582Z,15.33
2018-12-25T23:02:22.746Z,17.80
2018-12-25T23:04:54.069Z,15.37
2018-12-25T23:07:25.256Z,15.97
2018-12-25T23:09:56.627Z,16.37
2018-12-25T23:12:27.995Z,17.60
2018-12-25T23:14:59.225Z,16.03
2018-12-25T23:17:30.440Z,13.70
2018-12-25T23:20:01.818Z,13.53
2018-12-25T23:22:33.001Z,15.00
2018-12-25T23:25:04.590Z,15.90
2018-12-25T23:27:35.846Z,16.53
2018-12-25T23:30:07.578Z,15.37
2018-12-25T23:32:38.721Z,15.00
2018-12-25T23:35:10.180Z,14.83
2018-12-25T23:37:41.321Z,19.27
2018-12-25T23:40:12.690Z,22.17
2018-12-25T23:42:43.905Z,19.77
2018-12-25T23:45:15.229Z,18.03
2018-12-25T23:47:46.436Z,21.07
2018-12-25T23:50:17.683Z,20.57
2018-12-25T23:52:48.888Z,18.53
2018-12-25T23:55:20.058Z,21.50
2018-12-25T23:57:51.346Z,21.67
